sensor_id;sensor_type;location;lat;lon;timestamp;P1;durP1;ratioP1;P2;durP2;ratioP2
17340;SDS011;8788;49.930;8.660;2023-02-11T00:00:53;32.70;;;19.25;;
17340;SDS011;8788;49.930;8.660;2023-02-11T00:03:20;32.17;;;17.42;;
17340;SDS011;8788;49.930;8.660;2023-02-11T00:05:55;28.13;;;16.27;;
17340;SDS011;8788;49.930;8.660;2023-02-11T00:08:23;29.58;;;16.95;;
17340;SDS011;8788;49.930;8.660;2023-02-11T00:10:50;30.10;;;17.27;;
17340;SDS011;8788;49.930;8.660;2023-02-11T00:13:19;28.27;;;17.98;;
17340;SDS011;8788;49.930;8.660;2023-02-11T00:15:46;34.45;;;18.52;;
17340;SDS011;8788;49.930;8.660;2023-02-11T00:18:14;27.50;;;16.95;;
17340;SDS011;8788;49.930;8.660;2023-02-11T00:20:41;34.97;;;18.77;;
17340;SDS011;8788;49.930;8.660;2023-02-11T00:23:08;29.23;;;16.40;;
17340;SDS011;8788;49.930;8.660;2023-02-11T00:25:38;33.17;;;17.67;;
17340;SDS011;8788;49.930;8.660;2023-02-11T00:28:06;28.80;;;17.52;;
17340;SDS011;8788;49.930;8.660;2023-02-11T00:30:34;33.45;;;18.95;;
17340;SDS011;8788;49.930;8.660;2023-02-11T00:33:02;31.70;;;19.30;;
17340;SDS011;8788;49.930;8.660;2023-02-11T00:35:30;29.30;;;18.20;;
17340;SDS011;8788;49.930;8.660;2023-02-11T00:37:58;28.83;;;17.88;;
17340;SDS011;8788;49.930;8.660;2023-02-11T00:40:26;37.35;;;17.27;;
17340;SDS011;8788;49.930;8.660;2023-02-11T00:42:53;28.30;;;17.08;;
17340;SDS011;8788;49.930;8.660;2023-02-11T00:45:23;29.63;;;18.27;;
17340;SDS011;8788;49.930;8.660;2023-02-11T00:47:51;25.77;;;16.95;;
17340;SDS011;8788;49.930;8.660;2023-02-11T00:50:19;29.50;;;17.00;;
17340;SDS011;8788;49.930;8.660;2023-02-11T00:52:46;30.63;;;17.38;;
17340;SDS011;8788;49.930;8.660;2023-02-11T00:55:14;34.75;;;18.52;;
17340;SDS011;8788;49.930;8.660;2023-02-11T00:57:41;27.75;;;16.70;;
17340;SDS011;8788;49.930;8.660;2023-02-11T01:00:10;29.48;;;16.98;;
17340;SDS011;8788;49.930;8.660;2023-02-11T01:02:38;30.45;;;18.33;;
17340;SDS011;8788;49.930;8.660;2023-02-11T01:05:07;33.35;;;17.27;;
17340;SDS011;8788;49.930;8.660;2023-02-11T01:07:34;25.98;;;16.92;;
17340;SDS011;8788;49.930;8.660;2023-02-11T01:10:01;29.10;;;17.77;;
17340;SDS011;8788;49.930;8.660;2023-02-11T01:12:29;31.15;;;17.08;;
17340;SDS011;8788;49.930;8.660;2023-02-11T01:14:56;27.02;;;17.08;;
17340;SDS011;8788;49.930;8.660;2023-02-11T01:17:24;30.65;;;17.95;;
17340;SDS011;8788;49.930;8.660;2023-02-11T01:19:51;26.08;;;15.77;;
17340;SDS011;8788;49.930;8.660;2023-02-11T01:22:20;27.02;;;16.42;;
17340;SDS011;8788;49.930;8.660;2023-02-11T01:24:47;33.15;;;18.02;;
17340;SDS011;8788;49.930;8.660;2023-02-11T01:27:15;26.02;;;16.63;;
17340;SDS011;8788;49.930;8.660;2023-02-11T01:29:43;28.73;;;17.60;;
17340;SDS011;8788;49.930;8.660;2023-02-11T01:32:11;26.63;;;16.77;;
17340;SDS011;8788;49.930;8.660;2023-02-11T01:34:38;32.47;;;17.13;;
17340;SDS011;8788;49.930;8.660;2023-02-11T01:37:05;32.55;;;17.33;;
17340;SDS011;8788;49.930;8.660;2023-02-11T01:39:34;27.90;;;17.83;;
17340;SDS011;8788;49.930;8.660;2023-02-11T01:42:01;27.08;;;16.95;;
17340;SDS011;8788;49.930;8.660;2023-02-11T01:44:29;27.38;;;15.98;;
17340;SDS011;8788;49.930;8.660;2023-02-11T01:46:58;29.73;;;17.10;;
17340;SDS011;8788;49.930;8.660;2023-02-11T01:49:29;30.60;;;17.25;;
17340;SDS011;8788;49.930;8.660;2023-02-11T01:51:58;27.10;;;17.10;;
17340;SDS011;8788;49.930;8.660;2023-02-11T01:54:29;28.35;;;17.02;;
17340;SDS011;8788;49.930;8.660;2023-02-11T01:57:20;28.08;;;14.90;;
17340;SDS011;8788;49.930;8.660;2023-02-11T01:59:57;23.48;;;15.50;;
17340;SDS011;8788;49.930;8.660;2023-02-11T02:02:42;28.65;;;15.98;;
17340;SDS011;8788;49.930;8.660;2023-02-11T02:05:16;25.90;;;14.63;;
17340;SDS011;8788;49.930;8.660;2023-02-11T02:07:51;30.00;;;14.20;;
17340;SDS011;8788;49.930;8.660;2023-02-11T02:10:29;29.38;;;16.83;;
17340;SDS011;8788;49.930;8.660;2023-02-11T02:12:59;24.77;;;15.85;;
17340;SDS011;8788;49.930;8.660;2023-02-11T02:15:28;23.55;;;14.95;;
17340;SDS011;8788;49.930;8.660;2023-02-11T02:17:58;23.15;;;14.18;;
17340;SDS011;8788;49.930;8.660;2023-02-11T02:23:35;26.88;;;14.35;;
17340;SDS011;8788;49.930;8.660;2023-02-11T02:26:24;29.10;;;15.85;;
17340;SDS011;8788;49.930;8.660;2023-02-11T02:32:14;27.10;;;13.93;;
17340;SDS011;8788;49.930;8.660;2023-02-11T02:34:57;22.33;;;13.60;;
17340;SDS011;8788;49.930;8.660;2023-02-11T02:37:35;18.38;;;12.00;;
17340;SDS011;8788;49.930;8.660;2023-02-11T02:40:08;25.27;;;14.82;;
17340;SDS011;8788;49.930;8.660;2023-02-11T02:42:38;25.45;;;14.73;;
17340;SDS011;8788;49.930;8.660;2023-02-11T02:45:07;22.05;;;13.35;;
17340;SDS011;8788;49.930;8.660;2023-02-11T02:47:37;26.75;;;15.18;;
17340;SDS011;8788;49.930;8.660;2023-02-11T02:50:04;22.52;;;13.40;;
17340;SDS011;8788;49.930;8.660;2023-02-11T02:52:34;26.65;;;14.38;;
17340;SDS011;8788;49.930;8.660;2023-02-11T02:55:19;20.45;;;13.20;;
17340;SDS011;8788;49.930;8.660;2023-02-11T02:58:13;19.13;;;12.70;;
17340;SDS011;8788;49.930;8.660;2023-02-11T03:00:58;24.02;;;13.75;;
17340;SDS011;8788;49.930;8.660;2023-02-11T03:03:40;27.50;;;14.52;;
17340;SDS011;8788;49.930;8.660;2023-02-11T03:06:11;21.92;;;15.02;;
17340;SDS011;8788;49.930;8.660;2023-02-11T03:08:43;23.65;;;14.88;;
17340;SDS011;8788;49.930;8.660;2023-02-11T03:11:15;21.25;;;14.38;;
17340;SDS011;8788;49.930;8.660;2023-02-11T03:13:45;24.60;;;14.48;;
17340;SDS011;8788;49.930;8.660;2023-02-11T03:16:14;23.92;;;15.18;;
17340;SDS011;8788;49.930;8.660;2023-02-11T03:18:47;22.95;;;13.50;;
17340;SDS011;8788;49.930;8.660;2023-02-11T03:21:18;22.08;;;13.15;;
17340;SDS011;8788;49.930;8.660;2023-02-11T03:23:46;22.42;;;13.27;;
17340;SDS011;8788;49.930;8.660;2023-02-11T03:26:17;24.45;;;14.45;;
17340;SDS011;8788;49.930;8.660;2023-02-11T03:28:52;24.35;;;13.95;;
17340;SDS011;8788;49.930;8.660;2023-02-11T03:31:26;23.00;;;14.43;;
17340;SDS011;8788;49.930;8.660;2023-02-11T03:34:01;22.67;;;14.00;;
17340;SDS011;8788;49.930;8.660;2023-02-11T03:36:35;23.55;;;13.57;;
17340;SDS011;8788;49.930;8.660;2023-02-11T03:39:10;24.35;;;14.63;;
17340;SDS011;8788;49.930;8.660;2023-02-11T03:41:39;26.00;;;14.40;;
17340;SDS011;8788;49.930;8.660;2023-02-11T03:44:08;21.33;;;13.45;;
17340;SDS011;8788;49.930;8.660;2023-02-11T03:46:37;21.65;;;13.93;;
17340;SDS011;8788;49.930;8.660;2023-02-11T03:49:10;26.75;;;14.18;;
17340;SDS011;8788;49.930;8.660;2023-02-11T03:51:40;22.17;;;13.35;;
17340;SDS011;8788;49.930;8.660;2023-02-11T03:54:08;22.55;;;13.95;;
17340;SDS011;8788;49.930;8.660;2023-02-11T03:56:40;20.60;;;14.00;;
17340;SDS011;8788;49.930;8.660;2023-02-11T03:59:14;26.42;;;13.93;;
17340;SDS011;8788;49.930;8.660;2023-02-11T04:01:41;24.33;;;12.73;;
17340;SDS011;8788;49.930;8.660;2023-02-11T04:04:09;24.05;;;14.88;;
17340;SDS011;8788;49.930;8.660;2023-02-11T04:06:37;25.67;;;13.68;;
17340;SDS011;8788;49.930;8.660;2023-02-11T04:09:04;23.63;;;13.80;;
17340;SDS011;8788;49.930;8.660;2023-02-11T04:11:31;21.98;;;13.60;;
17340;SDS011;8788;49.930;8.660;2023-02-11T04:13:58;21.38;;;12.70;;
17340;SDS011;8788;49.930;8.660;2023-02-11T04:16:25;24.27;;;14.18;;
17340;SDS011;8788;49.930;8.660;2023-02-11T04:18:53;25.23;;;13.95;;
17340;SDS011;8788;49.930;8.660;2023-02-11T04:21:22;24.23;;;12.73;;
17340;SDS011;8788;49.930;8.660;2023-02-11T04:23:49;25.80;;;14.30;;
17340;SDS011;8788;49.930;8.660;2023-02-11T04:26:16;21.40;;;12.55;;
17340;SDS011;8788;49.930;8.660;2023-02-11T04:28:43;22.98;;;13.40;;
17340;SDS011;8788;49.930;8.660;2023-02-11T04:31:10;23.05;;;13.95;;
17340;SDS011;8788;49.930;8.660;2023-02-11T04:33:37;22.15;;;13.82;;
17340;SDS011;8788;49.930;8.660;2023-02-11T04:36:04;24.77;;;14.20;;
17340;SDS011;8788;49.930;8.660;2023-02-11T04:41:01;22.35;;;14.00;;
17340;SDS011;8788;49.930;8.660;2023-02-11T04:43:28;25.10;;;14.10;;
17340;SDS011;8788;49.930;8.660;2023-02-11T04:45:56;21.40;;;13.13;;
17340;SDS011;8788;49.930;8.660;2023-02-11T04:48:23;23.75;;;14.95;;
17340;SDS011;8788;49.930;8.660;2023-02-11T04:50:50;29.40;;;14.73;;
17340;SDS011;8788;49.930;8.660;2023-02-11T04:53:17;23.38;;;14.50;;
17340;SDS011;8788;49.930;8.660;2023-02-11T04:55:48;22.42;;;12.98;;
17340;SDS011;8788;49.930;8.660;2023-02-11T04:58:15;20.13;;;13.18;;
17340;SDS011;8788;49.930;8.660;2023-02-11T05:00:43;23.38;;;14.18;;
17340;SDS011;8788;49.930;8.660;2023-02-11T05:03:14;21.27;;;13.65;;
17340;SDS011;8788;49.930;8.660;2023-02-11T05:06:00;17.02;;;13.00;;
17340;SDS011;8788;49.930;8.660;2023-02-11T05:08:28;20.42;;;12.82;;
17340;SDS011;8788;49.930;8.660;2023-02-11T05:10:57;23.45;;;14.02;;
17340;SDS011;8788;49.930;8.660;2023-02-11T05:13:26;20.25;;;12.35;;
17340;SDS011;8788;49.930;8.660;2023-02-11T05:15:53;22.65;;;13.77;;
17340;SDS011;8788;49.930;8.660;2023-02-11T05:18:20;20.85;;;13.80;;
17340;SDS011;8788;49.930;8.660;2023-02-11T05:20:48;21.50;;;12.63;;
17340;SDS011;8788;49.930;8.660;2023-02-11T05:23:15;24.60;;;13.75;;
17340;SDS011;8788;49.930;8.660;2023-02-11T05:25:42;25.67;;;13.85;;
17340;SDS011;8788;49.930;8.660;2023-02-11T05:28:10;27.55;;;14.35;;
17340;SDS011;8788;49.930;8.660;2023-02-11T05:30:37;24.33;;;14.65;;
17340;SDS011;8788;49.930;8.660;2023-02-11T05:33:04;23.15;;;13.93;;
17340;SDS011;8788;49.930;8.660;2023-02-11T05:35:32;22.48;;;13.20;;
17340;SDS011;8788;49.930;8.660;2023-02-11T05:37:59;22.13;;;13.25;;
17340;SDS011;8788;49.930;8.660;2023-02-11T05:40:26;20.88;;;12.90;;
17340;SDS011;8788;49.930;8.660;2023-02-11T05:42:53;21.60;;;13.73;;
17340;SDS011;8788;49.930;8.660;2023-02-11T05:45:21;21.63;;;12.52;;
17340;SDS011;8788;49.930;8.660;2023-02-11T05:47:48;20.75;;;13.45;;
17340;SDS011;8788;49.930;8.660;2023-02-11T05:50:15;23.58;;;13.57;;
17340;SDS011;8788;49.930;8.660;2023-02-11T05:52:42;22.55;;;13.07;;
17340;SDS011;8788;49.930;8.660;2023-02-11T05:55:10;21.65;;;13.18;;
17340;SDS011;8788;49.930;8.660;2023-02-11T05:57:37;25.33;;;12.25;;
17340;SDS011;8788;49.930;8.660;2023-02-11T06:00:04;19.20;;;12.38;;
17340;SDS011;8788;49.930;8.660;2023-02-11T06:02:39;22.17;;;12.73;;
17340;SDS011;8788;49.930;8.660;2023-02-11T06:05:06;18.60;;;12.35;;
17340;SDS011;8788;49.930;8.660;2023-02-11T06:07:34;21.42;;;13.68;;
17340;SDS011;8788;49.930;8.660;2023-02-11T06:10:01;20.35;;;11.80;;
17340;SDS011;8788;49.930;8.660;2023-02-11T06:12:28;19.42;;;11.88;;
17340;SDS011;8788;49.930;8.660;2023-02-11T06:14:55;25.10;;;13.23;;
17340;SDS011;8788;49.930;8.660;2023-02-11T06:17:22;16.00;;;11.93;;
17340;SDS011;8788;49.930;8.660;2023-02-11T06:19:51;21.30;;;12.93;;
17340;SDS011;8788;49.930;8.660;2023-02-11T06:22:18;26.10;;;13.48;;
17340;SDS011;8788;49.930;8.660;2023-02-11T06:24:45;19.83;;;12.63;;
17340;SDS011;8788;49.930;8.660;2023-02-11T06:27:12;24.83;;;13.52;;
17340;SDS011;8788;49.930;8.660;2023-02-11T06:29:39;24.33;;;12.75;;
17340;SDS011;8788;49.930;8.660;2023-02-11T06:32:06;19.20;;;12.73;;
17340;SDS011;8788;49.930;8.660;2023-02-11T06:34:33;26.00;;;12.32;;
17340;SDS011;8788;49.930;8.660;2023-02-11T06:37:02;19.65;;;11.80;;
17340;SDS011;8788;49.930;8.660;2023-02-11T06:39:29;24.40;;;14.18;;
17340;SDS011;8788;49.930;8.660;2023-02-11T06:41:56;20.48;;;12.02;;
17340;SDS011;8788;49.930;8.660;2023-02-11T06:44:23;20.63;;;12.98;;
17340;SDS011;8788;49.930;8.660;2023-02-11T06:46:50;23.00;;;12.40;;
17340;SDS011;8788;49.930;8.660;2023-02-11T06:49:18;23.25;;;12.80;;
17340;SDS011;8788;49.930;8.660;2023-02-11T06:51:45;17.90;;;13.15;;
17340;SDS011;8788;49.930;8.660;2023-02-11T06:54:13;20.15;;;12.65;;
17340;SDS011;8788;49.930;8.660;2023-02-11T06:56:40;19.27;;;13.07;;
17340;SDS011;8788;49.930;8.660;2023-02-11T06:59:07;20.45;;;12.77;;
17340;SDS011;8788;49.930;8.660;2023-02-11T07:01:38;20.20;;;12.75;;
17340;SDS011;8788;49.930;8.660;2023-02-11T07:04:05;19.17;;;11.90;;
17340;SDS011;8788;49.930;8.660;2023-02-11T07:06:32;22.13;;;12.40;;
17340;SDS011;8788;49.930;8.660;2023-02-11T07:09:01;17.80;;;11.52;;
17340;SDS011;8788;49.930;8.660;2023-02-11T07:11:30;18.80;;;12.40;;
17340;SDS011;8788;49.930;8.660;2023-02-11T07:13:59;19.92;;;11.40;;
17340;SDS011;8788;49.930;8.660;2023-02-11T07:16:27;24.83;;;13.07;;
17340;SDS011;8788;49.930;8.660;2023-02-11T07:18:54;20.83;;;13.63;;
17340;SDS011;8788;49.930;8.660;2023-02-11T07:21:22;26.08;;;13.85;;
17340;SDS011;8788;49.930;8.660;2023-02-11T07:23:49;20.52;;;12.23;;
17340;SDS011;8788;49.930;8.660;2023-02-11T07:26:17;23.67;;;13.20;;
17340;SDS011;8788;49.930;8.660;2023-02-11T07:28:48;19.92;;;12.55;;
17340;SDS011;8788;49.930;8.660;2023-02-11T07:31:16;23.23;;;13.68;;
17340;SDS011;8788;49.930;8.660;2023-02-11T07:33:44;22.80;;;13.60;;
17340;SDS011;8788;49.930;8.660;2023-02-11T07:36:13;23.52;;;13.30;;
17340;SDS011;8788;49.930;8.660;2023-02-11T07:38:41;20.50;;;11.90;;
17340;SDS011;8788;49.930;8.660;2023-02-11T07:41:09;18.67;;;11.32;;
17340;SDS011;8788;49.930;8.660;2023-02-11T07:43:38;24.35;;;14.10;;
17340;SDS011;8788;49.930;8.660;2023-02-11T07:46:07;18.30;;;11.85;;
17340;SDS011;8788;49.930;8.660;2023-02-11T07:48:36;21.20;;;12.35;;
17340;SDS011;8788;49.930;8.660;2023-02-11T07:51:07;23.15;;;11.65;;
17340;SDS011;8788;49.930;8.660;2023-02-11T07:53:35;19.45;;;13.05;;
17340;SDS011;8788;49.930;8.660;2023-02-11T07:56:03;23.65;;;14.20;;
17340;SDS011;8788;49.930;8.660;2023-02-11T07:58:31;21.20;;;13.77;;
17340;SDS011;8788;49.930;8.660;2023-02-11T08:01:01;21.80;;;12.20;;
17340;SDS011;8788;49.930;8.660;2023-02-11T08:03:30;20.50;;;12.25;;
17340;SDS011;8788;49.930;8.660;2023-02-11T08:05:57;20.45;;;13.20;;
17340;SDS011;8788;49.930;8.660;2023-02-11T08:08:28;20.65;;;13.07;;
17340;SDS011;8788;49.930;8.660;2023-02-11T08:10:55;23.13;;;12.40;;
17340;SDS011;8788;49.930;8.660;2023-02-11T08:13:22;23.13;;;13.93;;
17340;SDS011;8788;49.930;8.660;2023-02-11T08:15:51;21.40;;;13.55;;
17340;SDS011;8788;49.930;8.660;2023-02-11T08:18:18;18.92;;;13.52;;
17340;SDS011;8788;49.930;8.660;2023-02-11T08:20:46;19.40;;;12.50;;
17340;SDS011;8788;49.930;8.660;2023-02-11T08:23:13;23.08;;;13.52;;
17340;SDS011;8788;49.930;8.660;2023-02-11T08:25:40;19.80;;;12.80;;
17340;SDS011;8788;49.930;8.660;2023-02-11T08:28:08;27.60;;;14.20;;
17340;SDS011;8788;49.930;8.660;2023-02-11T08:30:35;22.50;;;13.25;;
17340;SDS011;8788;49.930;8.660;2023-02-11T08:33:02;23.10;;;14.30;;
17340;SDS011;8788;49.930;8.660;2023-02-11T08:35:29;26.65;;;15.20;;
17340;SDS011;8788;49.930;8.660;2023-02-11T08:37:58;22.25;;;14.90;;
17340;SDS011;8788;49.930;8.660;2023-02-11T08:40:25;24.63;;;14.32;;
17340;SDS011;8788;49.930;8.660;2023-02-11T08:42:52;19.73;;;13.20;;
17340;SDS011;8788;49.930;8.660;2023-02-11T08:45:19;23.65;;;13.25;;
17340;SDS011;8788;49.930;8.660;2023-02-11T08:47:46;19.52;;;14.18;;
17340;SDS011;8788;49.930;8.660;2023-02-11T08:50:14;22.27;;;13.52;;
17340;SDS011;8788;49.930;8.660;2023-02-11T08:52:41;22.00;;;13.30;;
17340;SDS011;8788;49.930;8.660;2023-02-11T08:55:10;22.63;;;13.38;;
17340;SDS011;8788;49.930;8.660;2023-02-11T08:57:37;24.00;;;13.20;;
17340;SDS011;8788;49.930;8.660;2023-02-11T09:00:04;23.58;;;15.35;;
17340;SDS011;8788;49.930;8.660;2023-02-11T09:02:32;20.98;;;12.95;;
17340;SDS011;8788;49.930;8.660;2023-02-11T09:04:59;20.70;;;14.10;;
17340;SDS011;8788;49.930;8.660;2023-02-11T09:07:26;22.40;;;14.63;;
17340;SDS011;8788;49.930;8.660;2023-02-11T09:09:54;22.15;;;13.90;;
17340;SDS011;8788;49.930;8.660;2023-02-11T09:12:22;20.55;;;14.20;;
17340;SDS011;8788;49.930;8.660;2023-02-11T09:14:49;22.27;;;13.75;;
17340;SDS011;8788;49.930;8.660;2023-02-11T09:17:16;22.60;;;13.52;;
17340;SDS011;8788;49.930;8.660;2023-02-11T09:19:43;22.92;;;14.70;;
17340;SDS011;8788;49.930;8.660;2023-02-11T09:22:10;21.27;;;14.07;;
17340;SDS011;8788;49.930;8.660;2023-02-11T09:24:37;20.23;;;13.52;;
17340;SDS011;8788;49.930;8.660;2023-02-11T09:27:05;23.17;;;15.13;;
17340;SDS011;8788;49.930;8.660;2023-02-11T09:29:33;22.42;;;14.60;;
17340;SDS011;8788;49.930;8.660;2023-02-11T09:32:00;22.02;;;14.02;;
17340;SDS011;8788;49.930;8.660;2023-02-11T09:34:27;18.20;;;12.73;;
17340;SDS011;8788;49.930;8.660;2023-02-11T09:36:54;21.27;;;13.98;;
17340;SDS011;8788;49.930;8.660;2023-02-11T09:39:21;23.05;;;13.80;;
17340;SDS011;8788;49.930;8.660;2023-02-11T09:42:00;21.40;;;12.90;;
17340;SDS011;8788;49.930;8.660;2023-02-11T09:44:51;25.23;;;13.85;;
17340;SDS011;8788;49.930;8.660;2023-02-11T09:47:23;20.88;;;14.48;;
17340;SDS011;8788;49.930;8.660;2023-02-11T09:49:55;21.52;;;14.32;;
17340;SDS011;8788;49.930;8.660;2023-02-11T09:52:29;22.92;;;14.70;;
17340;SDS011;8788;49.930;8.660;2023-02-11T09:55:02;21.23;;;14.40;;
17340;SDS011;8788;49.930;8.660;2023-02-11T09:57:32;21.52;;;13.63;;
17340;SDS011;8788;49.930;8.660;2023-02-11T10:00:06;24.70;;;14.63;;
17340;SDS011;8788;49.930;8.660;2023-02-11T10:02:46;22.88;;;13.88;;
17340;SDS011;8788;49.930;8.660;2023-02-11T10:05:33;21.80;;;15.55;;
17340;SDS011;8788;49.930;8.660;2023-02-11T10:08:11;24.63;;;14.30;;
17340;SDS011;8788;49.930;8.660;2023-02-11T10:10:46;27.92;;;15.40;;
17340;SDS011;8788;49.930;8.660;2023-02-11T10:13:40;24.95;;;14.55;;
17340;SDS011;8788;49.930;8.660;2023-02-11T10:16:20;24.00;;;15.57;;
17340;SDS011;8788;49.930;8.660;2023-02-11T10:19:02;24.85;;;15.68;;
17340;SDS011;8788;49.930;8.660;2023-02-11T10:21:44;21.10;;;14.15;;
17340;SDS011;8788;49.930;8.660;2023-02-11T10:24:17;26.02;;;15.32;;
17340;SDS011;8788;49.930;8.660;2023-02-11T10:26:45;22.05;;;14.93;;
17340;SDS011;8788;49.930;8.660;2023-02-11T10:29:15;26.48;;;15.85;;
17340;SDS011;8788;49.930;8.660;2023-02-11T10:31:52;25.02;;;15.30;;
17340;SDS011;8788;49.930;8.660;2023-02-11T10:34:21;24.35;;;15.70;;
17340;SDS011;8788;49.930;8.660;2023-02-11T10:36:48;23.75;;;14.95;;
17340;SDS011;8788;49.930;8.660;2023-02-11T10:39:15;23.27;;;14.48;;
17340;SDS011;8788;49.930;8.660;2023-02-11T10:41:45;22.77;;;14.07;;
17340;SDS011;8788;49.930;8.660;2023-02-11T10:44:18;27.90;;;16.05;;
17340;SDS011;8788;49.930;8.660;2023-02-11T10:46:49;21.73;;;14.05;;
17340;SDS011;8788;49.930;8.660;2023-02-11T10:49:35;23.33;;;15.73;;
17340;SDS011;8788;49.930;8.660;2023-02-11T10:52:14;26.90;;;16.60;;
17340;SDS011;8788;49.930;8.660;2023-02-11T10:54:55;26.17;;;15.65;;
17340;SDS011;8788;49.930;8.660;2023-02-11T10:57:25;25.67;;;16.48;;
17340;SDS011;8788;49.930;8.660;2023-02-11T10:59:56;26.50;;;16.25;;
17340;SDS011;8788;49.930;8.660;2023-02-11T11:02:27;25.00;;;16.05;;
17340;SDS011;8788;49.930;8.660;2023-02-11T11:04:58;26.17;;;15.88;;
17340;SDS011;8788;49.930;8.660;2023-02-11T11:07:27;23.15;;;15.75;;
17340;SDS011;8788;49.930;8.660;2023-02-11T11:09:56;30.17;;;16.60;;
17340;SDS011;8788;49.930;8.660;2023-02-11T11:12:29;27.92;;;14.15;;
17340;SDS011;8788;49.930;8.660;2023-02-11T11:15:12;24.38;;;15.55;;
17340;SDS011;8788;49.930;8.660;2023-02-11T11:17:45;24.42;;;15.80;;
17340;SDS011;8788;49.930;8.660;2023-02-11T11:20:18;24.80;;;15.35;;
17340;SDS011;8788;49.930;8.660;2023-02-11T11:22:48;22.23;;;15.80;;
17340;SDS011;8788;49.930;8.660;2023-02-11T11:25:21;22.20;;;15.38;;
17340;SDS011;8788;49.930;8.660;2023-02-11T11:27:50;23.20;;;14.68;;
17340;SDS011;8788;49.930;8.660;2023-02-11T11:30:19;25.17;;;16.27;;
17340;SDS011;8788;49.930;8.660;2023-02-11T11:32:47;24.48;;;16.15;;
17340;SDS011;8788;49.930;8.660;2023-02-11T11:35:22;26.83;;;16.30;;
17340;SDS011;8788;49.930;8.660;2023-02-11T11:37:54;22.67;;;14.70;;
17340;SDS011;8788;49.930;8.660;2023-02-11T11:40:25;23.05;;;14.73;;
17340;SDS011;8788;49.930;8.660;2023-02-11T11:43:01;23.55;;;15.68;;
17340;SDS011;8788;49.930;8.660;2023-02-11T11:45:30;24.52;;;16.40;;
17340;SDS011;8788;49.930;8.660;2023-02-11T11:47:57;23.80;;;16.35;;
17340;SDS011;8788;49.930;8.660;2023-02-11T11:50:31;26.30;;;15.35;;
17340;SDS011;8788;49.930;8.660;2023-02-11T11:53:03;25.27;;;14.88;;
17340;SDS011;8788;49.930;8.660;2023-02-11T11:55:37;21.30;;;14.80;;
17340;SDS011;8788;49.930;8.660;2023-02-11T11:58:10;25.00;;;15.65;;
17340;SDS011;8788;49.930;8.660;2023-02-11T12:00:43;21.08;;;14.25;;
17340;SDS011;8788;49.930;8.660;2023-02-11T12:06:16;26.20;;;15.93;;
17340;SDS011;8788;49.930;8.660;2023-02-11T12:08:54;26.33;;;14.73;;
17340;SDS011;8788;49.930;8.660;2023-02-11T12:11:34;27.15;;;14.75;;
17340;SDS011;8788;49.930;8.660;2023-02-11T12:14:18;27.60;;;15.05;;
17340;SDS011;8788;49.930;8.660;2023-02-11T12:16:55;26.40;;;15.52;;
17340;SDS011;8788;49.930;8.660;2023-02-11T12:22:28;22.60;;;14.57;;
17340;SDS011;8788;49.930;8.660;2023-02-11T12:27:52;22.13;;;13.95;;
17340;SDS011;8788;49.930;8.660;2023-02-11T12:30:33;21.98;;;14.15;;
17340;SDS011;8788;49.930;8.660;2023-02-11T12:33:13;19.95;;;13.95;;
17340;SDS011;8788;49.930;8.660;2023-02-11T12:35:53;25.45;;;15.32;;
17340;SDS011;8788;49.930;8.660;2023-02-11T12:38:32;24.88;;;13.73;;
17340;SDS011;8788;49.930;8.660;2023-02-11T12:41:21;21.90;;;14.13;;
17340;SDS011;8788;49.930;8.660;2023-02-11T12:44:12;21.55;;;12.95;;
17340;SDS011;8788;49.930;8.660;2023-02-11T12:46:44;22.75;;;14.48;;
17340;SDS011;8788;49.930;8.660;2023-02-11T12:49:25;21.25;;;12.93;;
17340;SDS011;8788;49.930;8.660;2023-02-11T12:52:10;20.05;;;12.68;;
17340;SDS011;8788;49.930;8.660;2023-02-11T12:54:51;24.83;;;14.27;;
17340;SDS011;8788;49.930;8.660;2023-02-11T12:57:22;26.40;;;13.65;;
17340;SDS011;8788;49.930;8.660;2023-02-11T12:59:53;24.90;;;16.27;;
17340;SDS011;8788;49.930;8.660;2023-02-11T13:02:31;20.90;;;12.85;;
17340;SDS011;8788;49.930;8.660;2023-02-11T13:05:03;20.33;;;13.52;;
17340;SDS011;8788;49.930;8.660;2023-02-11T13:07:38;20.65;;;14.30;;
17340;SDS011;8788;49.930;8.660;2023-02-11T13:10:15;21.08;;;14.40;;
17340;SDS011;8788;49.930;8.660;2023-02-11T13:12:49;23.05;;;13.13;;
17340;SDS011;8788;49.930;8.660;2023-02-11T13:15:37;17.80;;;13.10;;
17340;SDS011;8788;49.930;8.660;2023-02-11T13:18:09;19.60;;;12.48;;
17340;SDS011;8788;49.930;8.660;2023-02-11T13:20:53;21.55;;;12.95;;
17340;SDS011;8788;49.930;8.660;2023-02-11T13:23:25;18.90;;;12.02;;
17340;SDS011;8788;49.930;8.660;2023-02-11T13:26:04;18.23;;;12.50;;
17340;SDS011;8788;49.930;8.660;2023-02-11T13:28:39;21.55;;;12.85;;
17340;SDS011;8788;49.930;8.660;2023-02-11T13:31:10;19.90;;;13.27;;
17340;SDS011;8788;49.930;8.660;2023-02-11T13:33:40;18.75;;;12.50;;
17340;SDS011;8788;49.930;8.660;2023-02-11T13:36:16;21.40;;;12.52;;
17340;SDS011;8788;49.930;8.660;2023-02-11T13:38:52;17.95;;;12.15;;
17340;SDS011;8788;49.930;8.660;2023-02-11T13:41:24;16.80;;;11.05;;
17340;SDS011;8788;49.930;8.660;2023-02-11T13:44:04;21.10;;;13.30;;
17340;SDS011;8788;49.930;8.660;2023-02-11T13:46:48;19.83;;;13.07;;
17340;SDS011;8788;49.930;8.660;2023-02-11T13:49:18;21.00;;;13.18;;
17340;SDS011;8788;49.930;8.660;2023-02-11T13:51:48;21.67;;;13.38;;
17340;SDS011;8788;49.930;8.660;2023-02-11T13:54:24;16.20;;;11.30;;
17340;SDS011;8788;49.930;8.660;2023-02-11T13:59:56;20.42;;;12.52;;
17340;SDS011;8788;49.930;8.660;2023-02-11T14:02:31;18.80;;;11.70;;
17340;SDS011;8788;49.930;8.660;2023-02-11T14:05:27;16.95;;;10.68;;
17340;SDS011;8788;49.930;8.660;2023-02-11T14:08:17;19.38;;;11.52;;
17340;SDS011;8788;49.930;8.660;2023-02-11T14:11:04;18.27;;;11.60;;
17340;SDS011;8788;49.930;8.660;2023-02-11T14:16:38;17.63;;;11.45;;
17340;SDS011;8788;49.930;8.660;2023-02-11T14:19:52;15.40;;;10.50;;
17340;SDS011;8788;49.930;8.660;2023-02-11T14:22:21;19.58;;;11.20;;
17340;SDS011;8788;49.930;8.660;2023-02-11T14:24:53;21.98;;;12.82;;
17340;SDS011;8788;49.930;8.660;2023-02-11T14:27:26;18.48;;;12.15;;
17340;SDS011;8788;49.930;8.660;2023-02-11T14:33:06;17.42;;;10.65;;
17340;SDS011;8788;49.930;8.660;2023-02-11T14:35:58;18.98;;;10.63;;
17340;SDS011;8788;49.930;8.660;2023-02-11T14:38:38;17.45;;;11.55;;
17340;SDS011;8788;49.930;8.660;2023-02-11T14:41:15;14.93;;;10.55;;
17340;SDS011;8788;49.930;8.660;2023-02-11T14:43:47;17.85;;;11.02;;
17340;SDS011;8788;49.930;8.660;2023-02-11T14:46:17;16.70;;;10.60;;
17340;SDS011;8788;49.930;8.660;2023-02-11T14:48:46;18.17;;;11.02;;
17340;SDS011;8788;49.930;8.660;2023-02-11T14:51:19;19.55;;;11.13;;
17340;SDS011;8788;49.930;8.660;2023-02-11T14:53:51;16.67;;;11.10;;
17340;SDS011;8788;49.930;8.660;2023-02-11T14:56:22;19.23;;;11.40;;
17340;SDS011;8788;49.930;8.660;2023-02-11T14:58:52;17.10;;;10.73;;
17340;SDS011;8788;49.930;8.660;2023-02-11T15:01:28;15.98;;;10.55;;
17340;SDS011;8788;49.930;8.660;2023-02-11T15:03:58;17.38;;;10.68;;
17340;SDS011;8788;49.930;8.660;2023-02-11T15:06:29;16.88;;;10.68;;
17340;SDS011;8788;49.930;8.660;2023-02-11T15:08:59;15.77;;;10.32;;
17340;SDS011;8788;49.930;8.660;2023-02-11T15:11:31;16.98;;;10.63;;
17340;SDS011;8788;49.930;8.660;2023-02-11T15:14:06;16.30;;;10.73;;
17340;SDS011;8788;49.930;8.660;2023-02-11T15:16:38;17.40;;;11.20;;
17340;SDS011;8788;49.930;8.660;2023-02-11T15:19:10;18.65;;;12.32;;
17340;SDS011;8788;49.930;8.660;2023-02-11T15:21:46;17.35;;;11.75;;
17340;SDS011;8788;49.930;8.660;2023-02-11T15:24:22;16.70;;;11.32;;